Crownpoint, New Mexico
Current Conditions -  °F | °C
As of 8:53 AM on Saturday 20 Dec 2014 (Local Time) from KGUP Reporting Station
Moderate Fog Moderate Fog  
Wind Chill: 25°   Ceiling: 300
Heat Index: 25°   Visibility: 0.25mi
Dew Point: 22°   Wind: 0mph
Humidity: 88%   Direction: NA
Pressure: 30.22"   Gusts: NA
Location:  35.68°N, 108.16°W
Report Text: KGUP 201553Z AUTO 00000KT 1/4SM FZFG VV003 M04/M06 A3022 RMK AO2 SLP271 I1000 T10391056
Loading
Personal Weather Stations






























Interactive Weather Map New forecast layout! Learn more

10-Day Weather Forecast

Advertisements
Track Severe Weather on mobile